createdAt,value
2022-10-13T00:00:55.520Z,8.20
2022-10-13T00:04:58.295Z,8.20
2022-10-13T00:08:59.263Z,8.10
2022-10-13T00:12:59.398Z,8.10
2022-10-13T00:16:59.538Z,8.00
2022-10-13T00:21:02.495Z,8.00
2022-10-13T00:25:02.756Z,7.90
2022-10-13T00:29:02.868Z,7.90
2022-10-13T00:33:03.023Z,7.90
2022-10-13T00:37:05.973Z,7.90
2022-10-13T00:41:06.724Z,7.90
2022-10-13T00:45:25.269Z,7.90
2022-10-13T00:49:25.432Z,7.90
2022-10-13T00:53:35.706Z,7.80
2022-10-13T00:57:36.569Z,7.80
2022-10-13T01:01:38.059Z,7.80
2022-10-13T01:05:39.091Z,7.80
2022-10-13T01:09:42.572Z,7.80
2022-10-13T01:13:53.148Z,8.00
2022-10-13T01:18:06.546Z,8.20
2022-10-13T01:22:23.638Z,8.30
2022-10-13T01:27:04.072Z,8.50
2022-10-13T01:31:16.372Z,8.60
2022-10-13T01:35:23.609Z,8.70
2022-10-13T01:39:40.989Z,8.80
2022-10-13T01:43:48.928Z,8.90
2022-10-13T01:47:55.223Z,8.90
2022-10-13T01:51:57.799Z,9.00
2022-10-13T01:56:00.793Z,9.10
2022-10-13T02:00:04.019Z,9.20
2022-10-13T02:04:32.013Z,9.20
2022-10-13T02:08:43.079Z,9.20
2022-10-13T02:12:52.481Z,9.30
2022-10-13T02:16:56.005Z,9.30
2022-10-13T02:20:59.464Z,9.30
2022-10-13T02:24:59.977Z,9.30
2022-10-13T02:29:00.756Z,9.30
2022-10-13T02:33:00.896Z,9.30
2022-10-13T02:37:06.745Z,9.30
2022-10-13T02:41:06.971Z,9.20
2022-10-13T02:45:08.877Z,9.10
2022-10-13T02:49:09.034Z,9.10
2022-10-13T02:53:11.836Z,9.00
2022-10-13T02:57:11.973Z,9.00
2022-10-13T03:01:15.069Z,9.00
2022-10-13T03:05:15.298Z,9.10
2022-10-13T03:09:18.158Z,9.20
2022-10-13T03:13:18.343Z,9.30
2022-10-13T03:17:18.666Z,9.30
2022-10-13T03:21:18.825Z,9.30
2022-10-13T03:25:21.575Z,9.40
2022-10-13T03:29:25.456Z,9.40
2022-10-13T03:33:25.545Z,9.50
2022-10-13T03:37:33.107Z,9.60
2022-10-13T03:41:36.117Z,9.60
2022-10-13T03:45:36.229Z,9.60
2022-10-13T03:49:36.800Z,9.60
2022-10-13T03:53:37.569Z,9.50
2022-10-13T03:57:40.354Z,9.50
2022-10-13T04:01:40.661Z,9.50
2022-10-13T04:05:40.889Z,9.40
2022-10-13T04:09:41.100Z,9.40
2022-10-13T04:13:45.417Z,9.50
2022-10-13T04:17:45.709Z,9.50
2022-10-13T04:21:46.696Z,9.60
2022-10-13T04:25:46.927Z,9.60
2022-10-13T04:29:49.928Z,9.60
2022-10-13T04:33:50.358Z,9.60
2022-10-13T04:37:50.544Z,9.60
2022-10-13T04:41:50.801Z,9.70
2022-10-13T04:45:53.547Z,9.70
2022-10-13T04:49:53.660Z,9.70
2022-10-13T04:53:58.585Z,9.70
2022-10-13T04:57:58.758Z,9.60
2022-10-13T05:02:03.335Z,9.60
2022-10-13T05:06:04.294Z,9.50
2022-10-13T05:10:04.542Z,9.50
2022-10-13T05:14:05.025Z,9.40
2022-10-13T05:18:07.853Z,9.50
2022-10-13T05:22:08.034Z,9.50
2022-10-13T05:26:11.457Z,9.60
2022-10-13T05:30:13.909Z,9.60
2022-10-13T05:34:16.797Z,9.70
2022-10-13T05:38:16.921Z,9.70
2022-10-13T05:42:17.369Z,9.80
2022-10-13T05:46:18.526Z,9.80
2022-10-13T05:50:21.368Z,9.80
2022-10-13T05:54:26.724Z,9.90
2022-10-13T05:58:27.733Z,9.90
2022-10-13T06:02:37.850Z,10.00
2022-10-13T06:06:40.925Z,10.10
2022-10-13T06:17:17.118Z,10.20
2022-10-13T06:21:18.273Z,10.40
2022-10-13T06:25:21.054Z,10.40
2022-10-13T06:29:21.230Z,10.50
2022-10-13T06:33:21.325Z,10.50
2022-10-13T06:37:26.952Z,10.70
2022-10-13T06:41:30.170Z,11.00
2022-10-13T06:45:30.376Z,11.20
2022-10-13T06:49:30.537Z,11.30
2022-10-13T06:53:30.990Z,11.40
2022-10-13T06:57:33.763Z,11.40
2022-10-13T07:01:41.593Z,11.60
2022-10-13T07:05:45.640Z,11.70
2022-10-13T07:09:45.911Z,11.90
2022-10-13T07:13:51.987Z,11.90
2022-10-13T07:17:56.172Z,12.00
2022-10-13T07:21:57.726Z,12.00
2022-10-13T07:25:59.527Z,12.00
2022-10-13T07:30:23.315Z,12.00
2022-10-13T07:34:35.832Z,11.80
2022-10-13T07:39:05.261Z,11.80
2022-10-13T07:43:09.631Z,11.80
2022-10-13T07:47:14.952Z,12.10
2022-10-13T07:51:22.090Z,12.40
2022-10-13T07:55:30.178Z,12.70
2022-10-13T07:59:36.811Z,12.70
2022-10-13T08:03:50.908Z,12.70
2022-10-13T08:08:21.190Z,12.70
2022-10-13T08:13:03.663Z,12.70
2022-10-13T08:17:05.379Z,12.80
2022-10-13T08:26:03.794Z,12.80
2022-10-13T08:30:06.359Z,13.00
2022-10-13T08:34:07.841Z,13.10
2022-10-13T08:38:10.911Z,13.10
2022-10-13T08:42:19.143Z,13.20
2022-10-13T08:46:28.430Z,13.30
2022-10-13T08:50:33.225Z,13.20
2022-10-13T08:54:41.968Z,13.30
2022-10-13T08:58:48.249Z,13.30
2022-10-13T09:02:53.717Z,13.40
2022-10-13T09:07:02.571Z,13.70
2022-10-13T09:11:19.112Z,14.00
2022-10-13T09:15:24.426Z,14.40
2022-10-13T09:19:34.189Z,14.90
2022-10-13T09:23:38.214Z,15.40
2022-10-13T09:28:08.096Z,15.30
2022-10-13T09:32:31.104Z,15.40
2022-10-13T09:36:32.797Z,15.40
2022-10-13T09:40:33.666Z,15.30
2022-10-13T09:44:39.991Z,15.20
2022-10-13T09:48:50.729Z,15.00
2022-10-13T09:52:52.290Z,14.90
2022-10-13T09:57:02.248Z,14.80
2022-10-13T10:01:09.062Z,14.70
2022-10-13T10:05:26.514Z,14.60
2022-10-13T10:09:42.002Z,14.70
2022-10-13T10:13:43.426Z,14.70
2022-10-13T10:17:56.704Z,14.90
2022-10-13T10:22:10.467Z,14.80
2022-10-13T10:26:24.252Z,14.90
2022-10-13T10:30:27.819Z,14.70
2022-10-13T10:34:58.346Z,14.60
2022-10-13T10:39:11.207Z,14.60
2022-10-13T10:43:47.139Z,14.70
2022-10-13T10:47:55.691Z,14.90
2022-10-13T10:52:02.158Z,15.00
2022-10-13T10:56:17.022Z,15.30
2022-10-13T11:00:22.427Z,15.30
2022-10-13T11:04:41.836Z,15.30
2022-10-13T11:08:57.057Z,15.30
2022-10-13T11:13:30.989Z,15.40
2022-10-13T11:23:18.063Z,15.70
2022-10-13T11:27:48.926Z,15.60
2022-10-13T11:32:03.339Z,15.50
2022-10-13T11:36:59.097Z,15.30
2022-10-13T11:41:55.673Z,15.20
2022-10-13T11:46:30.700Z,15.00
2022-10-13T11:50:50.965Z,15.30
2022-10-13T11:55:19.433Z,15.60
2022-10-13T11:59:54.595Z,15.80
2022-10-13T12:04:15.465Z,16.00
2022-10-13T12:08:53.225Z,15.90
2022-10-13T12:13:33.647Z,15.60
2022-10-13T12:17:52.588Z,15.40
2022-10-13T12:22:09.564Z,15.30
2022-10-13T12:26:56.853Z,15.10
2022-10-13T12:31:11.596Z,14.80
2022-10-13T12:35:34.950Z,14.70
2022-10-13T12:40:24.773Z,14.80
2022-10-13T12:44:34.583Z,14.80
2022-10-13T12:48:38.497Z,14.60
2022-10-13T12:52:40.909Z,14.70
2022-10-13T12:56:46.257Z,14.60
2022-10-13T13:00:46.466Z,14.60
2022-10-13T13:04:47.298Z,14.60
2022-10-13T13:08:47.494Z,14.60
2022-10-13T13:12:53.162Z,14.80
2022-10-13T13:17:07.642Z,14.80
2022-10-13T13:21:09.839Z,14.80
2022-10-13T13:25:14.113Z,14.90
2022-10-13T13:29:17.116Z,14.80
2022-10-13T13:33:17.320Z,14.70
2022-10-13T13:37:27.441Z,14.80
2022-10-13T13:41:31.075Z,14.90
2022-10-13T13:45:37.439Z,14.90
2022-10-13T13:49:40.306Z,14.90
2022-10-13T13:53:40.692Z,15.00
2022-10-13T13:57:46.721Z,15.00
2022-10-13T14:01:52.523Z,15.00
2022-10-13T14:05:58.443Z,15.10
2022-10-13T14:10:01.960Z,15.00
2022-10-13T14:14:08.935Z,15.10
2022-10-13T14:18:13.503Z,15.10
2022-10-13T14:22:13.592Z,15.20
2022-10-13T14:26:13.798Z,15.20
2022-10-13T14:30:16.283Z,15.20
2022-10-13T14:34:19.101Z,15.30
2022-10-13T14:38:19.233Z,15.30
2022-10-13T14:42:21.343Z,15.50
2022-10-13T14:46:21.618Z,15.50
2022-10-13T14:50:24.433Z,15.30
2022-10-13T14:54:29.244Z,15.10
2022-10-13T14:58:29.382Z,15.00
2022-10-13T15:02:29.792Z,14.70
2022-10-13T15:06:32.752Z,14.50
2022-10-13T15:10:33.602Z,14.40
2022-10-13T15:14:34.485Z,14.40
2022-10-13T15:18:36.184Z,14.40
2022-10-13T15:22:39.055Z,14.50
2022-10-13T15:26:42.462Z,14.50
2022-10-13T15:30:42.770Z,14.50
2022-10-13T15:34:43.254Z,14.40
2022-10-13T15:38:46.153Z,14.30
2022-10-13T15:42:46.241Z,14.30
2022-10-13T15:47:06.693Z,14.20
2022-10-13T15:51:17.109Z,14.10
2022-10-13T15:55:20.833Z,14.00
2022-10-13T15:59:21.170Z,13.90
2022-10-13T16:03:21.914Z,13.80
2022-10-13T16:07:22.755Z,13.90
2022-10-13T16:11:27.683Z,13.70
2022-10-13T16:15:29.218Z,13.60
2022-10-13T16:19:29.518Z,13.50
2022-10-13T16:23:29.807Z,13.40
2022-10-13T16:27:32.651Z,13.20
2022-10-13T16:31:33.319Z,13.10
2022-10-13T16:35:34.373Z,13.00
2022-10-13T16:39:36.533Z,12.90
2022-10-13T16:43:43.209Z,12.80
2022-10-13T16:47:43.307Z,12.70
2022-10-13T16:51:43.594Z,12.50
2022-10-13T16:55:43.820Z,12.40
2022-10-13T16:59:48.461Z,12.30
2022-10-13T17:03:50.356Z,12.20
2022-10-13T17:07:50.495Z,12.10
2022-10-13T17:11:50.775Z,11.90
2022-10-13T17:15:59.246Z,11.90
2022-10-13T17:19:59.502Z,11.80
2022-10-13T17:23:59.781Z,11.70
2022-10-13T17:27:59.940Z,11.60
2022-10-13T17:32:02.778Z,11.60
2022-10-13T17:36:04.605Z,11.60
2022-10-13T17:40:04.877Z,11.70
2022-10-13T17:44:05.440Z,11.80
2022-10-13T17:48:08.522Z,11.90
2022-10-13T17:52:09.279Z,11.90
2022-10-13T17:56:13.529Z,12.00
2022-10-13T18:00:16.457Z,12.10
2022-10-13T18:04:22.455Z,12.10
2022-10-13T18:08:22.792Z,12.10
2022-10-13T18:12:23.496Z,12.10
2022-10-13T18:16:26.394Z,12.10
2022-10-13T18:20:29.124Z,12.10
2022-10-13T18:24:29.287Z,12.00
2022-10-13T18:28:33.388Z,11.90
2022-10-13T18:32:33.829Z,11.80
2022-10-13T18:36:39.032Z,11.70
2022-10-13T18:40:41.637Z,11.60
2022-10-13T18:44:41.821Z,11.50
2022-10-13T18:48:42.294Z,11.50
2022-10-13T18:52:45.067Z,11.40
2022-10-13T18:56:45.379Z,11.50
2022-10-13T19:00:45.635Z,11.60
2022-10-13T19:04:45.782Z,11.60
2022-10-13T19:08:49.736Z,11.50
2022-10-13T19:12:50.082Z,11.40
2022-10-13T19:16:55.235Z,11.30
2022-10-13T19:21:01.612Z,11.20
2022-10-13T19:25:04.457Z,11.20
2022-10-13T19:29:08.748Z,11.20
2022-10-13T19:33:11.324Z,11.20
2022-10-13T19:37:20.467Z,11.30
2022-10-13T19:41:23.984Z,11.20
2022-10-13T19:45:24.198Z,11.20
2022-10-13T19:49:27.446Z,11.10
2022-10-13T19:53:29.701Z,11.00
2022-10-13T19:57:32.489Z,10.90
2022-10-13T20:01:32.957Z,10.90
2022-10-13T20:05:33.715Z,10.80
2022-10-13T20:09:33.923Z,10.80
2022-10-13T20:13:36.817Z,10.80
2022-10-13T20:17:37.036Z,10.80
2022-10-13T20:21:37.333Z,10.90
2022-10-13T20:25:40.008Z,10.90
2022-10-13T20:29:42.883Z,11.00
2022-10-13T20:33:43.863Z,11.00
2022-10-13T20:37:44.033Z,11.00
2022-10-13T20:41:44.319Z,11.00
2022-10-13T20:45:48.955Z,11.10
2022-10-13T20:49:49.072Z,11.10
2022-10-13T20:53:51.227Z,11.10
2022-10-13T20:57:54.299Z,11.10
2022-10-13T21:01:57.118Z,11.10
2022-10-13T21:05:59.180Z,11.10
2022-10-13T21:09:59.285Z,11.00
2022-10-13T21:14:00.177Z,11.00
2022-10-13T21:18:02.971Z,10.90
2022-10-13T21:22:03.060Z,10.90
2022-10-13T21:26:05.463Z,10.90
2022-10-13T21:30:06.294Z,10.80
2022-10-13T21:34:09.099Z,10.70
2022-10-13T21:38:09.218Z,10.50
2022-10-13T21:42:10.427Z,10.40
2022-10-13T21:46:15.840Z,10.30
2022-10-13T21:50:18.849Z,10.20
2022-10-13T21:54:19.584Z,10.10
2022-10-13T21:58:19.731Z,10.10
2022-10-13T22:02:19.948Z,10.10
2022-10-13T22:06:23.426Z,10.10
2022-10-13T22:10:23.631Z,10.20
2022-10-13T22:14:25.175Z,10.20
2022-10-13T22:18:28.290Z,10.20
2022-10-13T22:22:31.251Z,10.20
2022-10-13T22:26:34.640Z,10.30
2022-10-13T22:30:34.804Z,10.30
2022-10-13T22:34:37.048Z,10.30
2022-10-13T22:38:40.033Z,10.30
2022-10-13T22:42:40.172Z,10.30
2022-10-13T22:46:42.549Z,10.30
2022-10-13T22:50:46.643Z,10.30
2022-10-13T22:54:49.433Z,10.40
2022-10-13T22:58:53.386Z,10.40
2022-10-13T23:02:53.620Z,10.40
2022-10-13T23:06:53.814Z,10.40
2022-10-13T23:10:57.409Z,10.40
2022-10-13T23:14:57.607Z,10.40
2022-10-13T23:18:58.429Z,10.40
2022-10-13T23:22:58.526Z,10.40
2022-10-13T23:27:01.467Z,10.40
2022-10-13T23:31:03.461Z,10.40
2022-10-13T23:35:03.705Z,10.30
2022-10-13T23:39:10.275Z,10.30
2022-10-13T23:43:13.141Z,10.30
2022-10-13T23:47:14.849Z,10.30
2022-10-13T23:51:19.328Z,10.30
2022-10-13T23:55:19.552Z,10.30
2022-10-13T23:59:22.245Z,10.30
